createdAt,value
2018-07-13T00:02:09.685Z,99.90
2018-07-13T00:04:38.150Z,99.90
2018-07-13T00:07:06.475Z,99.90
2018-07-13T00:12:03.132Z,99.90
2018-07-13T00:14:31.556Z,99.90
2018-07-13T00:17:06.591Z,99.90
2018-07-13T00:19:36.204Z,99.90
2018-07-13T00:22:04.691Z,99.90
2018-07-13T00:24:33.505Z,99.90
2018-07-13T00:27:02.272Z,99.90
2018-07-13T00:31:59.009Z,99.90
2018-07-13T00:34:27.494Z,99.90
2018-07-13T00:36:55.885Z,99.90
2018-07-13T00:39:24.558Z,99.90
2018-07-13T00:41:52.970Z,99.90
2018-07-13T00:44:21.357Z,99.90
2018-07-13T00:46:50.084Z,99.90
2018-07-13T00:49:18.412Z,99.90
2018-07-13T00:51:46.870Z,99.90
2018-07-13T00:54:15.590Z,99.90
2018-07-13T00:56:44.037Z,99.90
2018-07-13T00:59:12.408Z,99.90
2018-07-13T01:01:41.195Z,99.90
2018-07-13T01:04:09.532Z,99.90
2018-07-13T01:09:06.311Z,99.90
2018-07-13T01:11:34.769Z,99.90
2018-07-13T01:14:03.173Z,99.90
2018-07-13T01:16:31.888Z,99.90
2018-07-13T01:19:00.346Z,99.90
2018-07-13T01:21:29.198Z,99.90
2018-07-13T01:23:58.014Z,99.90
2018-07-13T01:26:26.583Z,99.90
2018-07-13T01:31:23.006Z,99.90
2018-07-13T01:33:51.353Z,99.90
2018-07-13T01:36:19.709Z,99.90
2018-07-13T01:38:48.485Z,99.90
2018-07-13T01:41:16.927Z,99.90
2018-07-13T01:43:45.275Z,99.90
2018-07-13T01:46:13.945Z,99.90
2018-07-13T01:48:42.308Z,99.90
2018-07-13T01:51:10.694Z,99.90
2018-07-13T01:53:39.284Z,99.90
2018-07-13T01:56:07.629Z,99.90
2018-07-13T01:58:37.194Z,99.90
2018-07-13T02:01:05.580Z,99.90
2018-07-13T02:03:33.850Z,99.90
2018-07-13T02:06:02.507Z,99.90
2018-07-13T02:08:30.765Z,99.90
2018-07-13T02:10:59.111Z,99.90
2018-07-13T02:13:28.148Z,99.90
2018-07-13T02:15:56.383Z,99.90
2018-07-13T02:18:24.653Z,99.90
2018-07-13T02:20:53.200Z,99.90
2018-07-13T02:23:21.535Z,99.90
2018-07-13T02:25:49.911Z,99.90
2018-07-13T02:28:18.245Z,99.90
2018-07-13T02:30:46.524Z,99.90
2018-07-13T02:33:15.105Z,99.90
2018-07-13T02:35:44.087Z,99.90
2018-07-13T02:38:12.378Z,99.90
2018-07-13T02:40:41.168Z,99.90
2018-07-13T02:43:09.451Z,99.90
2018-07-13T02:45:37.696Z,99.90
2018-07-13T02:48:06.276Z,99.90
2018-07-13T02:50:34.525Z,99.90
2018-07-13T02:53:02.786Z,99.90
2018-07-13T02:55:32.034Z,99.90
2018-07-13T02:58:00.713Z,99.90
2018-07-13T03:00:30.449Z,99.90
2018-07-13T03:02:59.215Z,99.90
2018-07-13T03:05:27.638Z,99.90
2018-07-13T03:07:55.973Z,99.90
2018-07-13T03:10:24.768Z,99.90
2018-07-13T03:12:53.106Z,99.90
2018-07-13T03:15:21.424Z,99.90
2018-07-13T03:17:50.260Z,99.90
2018-07-13T03:20:18.591Z,99.90
2018-07-13T03:22:46.955Z,99.90
2018-07-13T03:31:58.652Z,99.90
2018-07-13T03:34:27.034Z,99.90
2018-07-13T03:36:55.627Z,99.90
2018-07-13T03:39:24.355Z,99.90
2018-07-13T03:41:52.681Z,99.90
2018-07-13T03:44:21.044Z,99.90
2018-07-13T03:46:49.756Z,99.90
2018-07-13T03:49:18.288Z,99.90
2018-07-13T03:51:46.861Z,99.90
2018-07-13T03:54:15.638Z,99.90
2018-07-13T03:59:12.047Z,99.90
2018-07-13T04:01:41.041Z,99.90
2018-07-13T04:04:09.409Z,99.90
2018-07-13T04:06:37.742Z,99.90
2018-07-13T04:09:07.701Z,99.90
2018-07-13T04:11:36.076Z,99.90
2018-07-13T04:14:04.632Z,99.90
2018-07-13T04:16:33.308Z,99.90
2018-07-13T04:19:01.728Z,99.90
2018-07-13T04:21:30.237Z,99.90
2018-07-13T04:23:58.948Z,99.90
2018-07-13T04:26:27.318Z,99.90
2018-07-13T04:28:55.661Z,99.90
2018-07-13T04:31:24.710Z,99.90
2018-07-13T04:33:54.397Z,99.90
2018-07-13T04:36:22.856Z,99.90
2018-07-13T04:39:00.600Z,99.90
2018-07-13T04:41:29.287Z,99.90
2018-07-13T04:43:57.705Z,99.90
2018-07-13T04:46:26.453Z,99.90
2018-07-13T04:48:55.062Z,99.90
2018-07-13T04:51:23.480Z,99.90
2018-07-13T04:53:52.968Z,99.90
2018-07-13T04:56:22.430Z,99.90
2018-07-13T04:58:51.141Z,99.90
2018-07-13T05:03:49.077Z,99.90
2018-07-13T05:06:17.450Z,99.90
2018-07-13T05:08:46.152Z,99.90
2018-07-13T05:11:14.621Z,99.90
2018-07-13T05:13:42.988Z,99.90
2018-07-13T05:16:11.819Z,99.90
2018-07-13T05:19:09.595Z,99.90
2018-07-13T05:21:58.642Z,99.90
2018-07-13T05:24:32.307Z,99.90
2018-07-13T05:27:07.163Z,99.90
2018-07-13T05:29:36.600Z,99.90
2018-07-13T05:32:04.939Z,99.90
2018-07-13T05:34:53.835Z,99.90
2018-07-13T05:37:36.853Z,99.90
2018-07-13T05:40:10.082Z,99.90
2018-07-13T05:42:40.472Z,99.90
2018-07-13T05:45:14.268Z,99.90
2018-07-13T05:47:43.035Z,99.90
2018-07-13T05:50:11.629Z,99.90
2018-07-13T05:52:40.096Z,99.90
2018-07-13T05:55:09.012Z,99.90
2018-07-13T05:57:37.389Z,99.90
2018-07-13T06:00:06.191Z,99.90
2018-07-13T06:05:02.980Z,99.90
2018-07-13T06:07:31.424Z,99.90
2018-07-13T06:10:00.561Z,99.90
2018-07-13T06:12:29.076Z,99.90
2018-07-13T06:14:57.465Z,99.90
2018-07-13T06:17:26.261Z,99.90
2018-07-13T06:19:54.749Z,99.90
2018-07-13T06:22:23.396Z,99.90
2018-07-13T06:24:53.096Z,99.90
2018-07-13T06:27:21.612Z,99.90
2018-07-13T06:29:50.677Z,99.90
2018-07-13T06:32:19.406Z,99.90
2018-07-13T06:40:07.911Z,99.90
2018-07-13T06:42:37.082Z,99.90
2018-07-13T06:45:05.900Z,99.90
2018-07-13T06:47:34.308Z,99.90
2018-07-13T06:50:02.750Z,99.90
2018-07-13T06:52:31.414Z,99.90
2018-07-13T06:55:02.646Z,99.90
2018-07-13T06:57:36.957Z,99.90
2018-07-13T07:03:33.326Z,99.90
2018-07-13T07:06:14.871Z,99.90
2018-07-13T07:11:43.786Z,96.30
2018-07-13T07:14:13.029Z,95.60
2018-07-13T07:18:22.814Z,95.60
2018-07-13T07:20:51.910Z,95.60
2018-07-13T07:23:20.692Z,95.80
2018-07-13T07:25:49.488Z,97.30
2018-07-13T07:28:20.156Z,97.10
2018-07-13T07:30:53.262Z,98.20
2018-07-13T07:33:27.512Z,96.70
2018-07-13T07:36:19.402Z,94.80
2018-07-13T07:38:48.360Z,94.40
2018-07-13T07:41:17.492Z,93.40
2018-07-13T07:43:48.653Z,93.60
2018-07-13T07:46:17.722Z,94.30
2018-07-13T07:48:51.460Z,94.10
2018-07-13T07:51:24.307Z,92.90
2018-07-13T07:53:53.361Z,91.70
2018-07-13T07:56:22.173Z,91.60
2018-07-13T07:58:54.664Z,94.30
2018-07-13T08:01:23.384Z,94.50
2018-07-13T08:04:06.950Z,96.00
2018-07-13T08:06:39.551Z,96.30
2018-07-13T08:09:13.205Z,99.10
2018-07-13T08:11:42.400Z,96.70
2018-07-13T08:14:11.151Z,95.30
2018-07-13T08:16:39.447Z,95.70
2018-07-13T08:19:15.827Z,96.20
2018-07-13T08:21:46.295Z,95.20
2018-07-13T08:24:18.209Z,96.80
2018-07-13T08:27:02.524Z,96.20
2018-07-13T08:29:59.327Z,99.20
2018-07-13T08:32:29.423Z,98.10
2018-07-13T08:34:59.520Z,97.70
2018-07-13T08:37:27.936Z,96.80
2018-07-13T08:39:56.789Z,95.80
2018-07-13T08:42:32.544Z,95.90
2018-07-13T08:45:06.648Z,97.20
2018-07-13T08:47:36.955Z,98.30
2018-07-13T08:52:35.588Z,97.80
2018-07-13T08:55:12.369Z,96.50
2018-07-13T09:00:14.592Z,98.40
2018-07-13T09:03:00.041Z,95.90
2018-07-13T09:05:33.443Z,95.80
2018-07-13T09:10:39.133Z,95.70
2018-07-13T09:13:07.953Z,95.00
2018-07-13T09:15:36.344Z,94.70
2018-07-13T09:18:05.142Z,94.40
2018-07-13T09:20:33.886Z,95.50
2018-07-13T09:23:03.226Z,95.50
2018-07-13T09:25:32.455Z,95.60
2018-07-13T09:28:02.896Z,96.50
2018-07-13T09:30:31.231Z,95.70
2018-07-13T09:32:59.895Z,95.20
2018-07-13T09:35:28.729Z,92.90
2018-07-13T09:37:59.020Z,94.60
2018-07-13T09:40:27.538Z,94.10
2018-07-13T09:42:56.960Z,94.60
2018-07-13T09:45:26.212Z,95.50
2018-07-13T09:47:55.166Z,96.50
2018-07-13T09:52:51.997Z,92.70
2018-07-13T09:55:20.514Z,94.40
2018-07-13T09:57:49.581Z,94.40
2018-07-13T10:00:17.998Z,94.90
2018-07-13T10:02:46.400Z,97.60
2018-07-13T10:05:15.106Z,94.20
2018-07-13T10:07:43.717Z,96.40
2018-07-13T10:10:12.197Z,95.60
2018-07-13T10:12:41.086Z,96.90
2018-07-13T10:15:09.585Z,96.30
2018-07-13T10:17:37.993Z,95.40
2018-07-13T10:20:07.136Z,95.00
2018-07-13T10:22:35.538Z,96.20
2018-07-13T10:25:07.157Z,96.10
2018-07-13T10:27:48.414Z,96.80
2018-07-13T10:30:17.044Z,97.20
2018-07-13T10:32:46.610Z,95.20
2018-07-13T10:35:19.194Z,95.60
2018-07-13T10:37:47.816Z,98.30
2018-07-13T10:40:20.980Z,97.60
2018-07-13T10:45:17.577Z,96.10
2018-07-13T10:47:50.455Z,97.20
2018-07-13T10:50:19.205Z,98.10
2018-07-13T10:52:48.993Z,98.50
2018-07-13T10:55:18.183Z,98.70
2018-07-13T10:57:46.718Z,97.50
2018-07-13T11:00:15.125Z,96.70
2018-07-13T11:05:51.560Z,93.90
2018-07-13T11:08:19.951Z,95.90
2018-07-13T11:10:48.879Z,95.80
2018-07-13T11:13:31.822Z,97.10
2018-07-13T11:18:29.110Z,96.60
2018-07-13T11:20:57.562Z,95.40
2018-07-13T11:23:26.610Z,94.90
2018-07-13T11:25:55.099Z,92.90
2018-07-13T11:28:34.168Z,93.50
2018-07-13T11:31:03.280Z,93.50
2018-07-13T11:33:31.729Z,92.10
2018-07-13T11:36:00.061Z,93.10
2018-07-13T11:38:47.950Z,95.70
2018-07-13T11:41:16.351Z,95.10
2018-07-13T11:43:45.649Z,95.10
2018-07-13T11:46:16.408Z,97.20
2018-07-13T11:48:46.658Z,99.40
2018-07-13T11:51:17.342Z,97.90
2018-07-13T11:53:45.907Z,97.40
2018-07-13T11:56:20.816Z,94.90
2018-07-13T11:58:53.054Z,94.60
2018-07-13T12:01:26.732Z,94.70
2018-07-13T12:03:55.213Z,96.30
2018-07-13T12:06:41.930Z,95.40
2018-07-13T12:09:10.615Z,95.80
2018-07-13T12:11:39.325Z,96.00
2018-07-13T12:14:07.729Z,96.30
2018-07-13T12:19:06.820Z,97.50
2018-07-13T12:21:36.811Z,94.20
2018-07-13T12:24:06.659Z,94.80
2018-07-13T12:26:35.456Z,94.40
2018-07-13T12:41:35.642Z,93.30
2018-07-13T12:44:04.219Z,95.00
2018-07-13T12:46:32.755Z,92.20
2018-07-13T12:49:02.960Z,93.40
2018-07-13T12:51:38.422Z,93.20
2018-07-13T12:54:07.026Z,91.20
2018-07-13T12:56:42.025Z,91.70
2018-07-13T12:59:10.413Z,92.90
2018-07-13T13:01:39.012Z,91.80
2018-07-13T13:04:07.659Z,96.50
2018-07-13T13:09:05.056Z,91.90
2018-07-13T13:11:33.471Z,92.30
2018-07-13T13:14:05.187Z,93.90
2018-07-13T13:16:33.973Z,91.40
2018-07-13T13:19:02.581Z,91.70
2018-07-13T13:21:31.198Z,91.00
2018-07-13T13:24:00.326Z,92.30
2018-07-13T13:26:29.093Z,93.20
2018-07-13T13:28:58.482Z,92.20
2018-07-13T13:31:27.459Z,92.50
2018-07-13T13:33:57.682Z,95.90
2018-07-13T13:36:26.470Z,95.50
2018-07-13T13:38:55.307Z,92.90
2018-07-13T13:41:23.830Z,95.70
2018-07-13T13:43:52.729Z,91.30
2018-07-13T13:46:21.496Z,94.20
2018-07-13T13:48:50.248Z,92.50
2018-07-13T13:51:18.619Z,91.60
2018-07-13T13:53:57.619Z,90.70
2018-07-13T13:56:32.171Z,90.60
2018-07-13T13:59:13.330Z,90.80
2018-07-13T14:01:41.770Z,90.80
2018-07-13T14:04:10.504Z,90.90
2018-07-13T14:06:39.290Z,90.30
2018-07-13T14:09:08.607Z,91.20
2018-07-13T14:11:37.402Z,91.10
2018-07-13T14:14:06.617Z,90.20
2018-07-13T14:16:35.690Z,91.00
2018-07-13T14:19:22.595Z,90.80
2018-07-13T14:21:54.568Z,91.00
2018-07-13T14:24:24.401Z,90.90
2018-07-13T14:26:52.860Z,91.80
2018-07-13T14:29:21.233Z,91.50
2018-07-13T14:31:50.025Z,90.90
2018-07-13T14:34:18.506Z,90.80
2018-07-13T14:36:47.045Z,92.80
2018-07-13T14:39:16.601Z,90.80
2018-07-13T14:42:01.236Z,91.70
2018-07-13T14:44:30.154Z,90.70
2018-07-13T14:46:59.269Z,90.50
2018-07-13T14:49:29.120Z,92.70
2018-07-13T14:51:57.957Z,91.30
2018-07-13T14:54:26.376Z,90.50
2018-07-13T14:56:55.049Z,91.90
2018-07-13T14:59:23.797Z,89.80
2018-07-13T15:01:52.346Z,90.30
2018-07-13T15:04:21.051Z,90.30
2018-07-13T15:06:49.912Z,90.60
2018-07-13T15:12:33.649Z,91.50
2018-07-13T15:17:50.771Z,93.00
2018-07-13T15:22:48.350Z,91.20
2018-07-13T15:25:17.211Z,90.50
2018-07-13T15:27:45.764Z,90.90
2018-07-13T15:30:18.778Z,91.30
2018-07-13T15:32:50.107Z,90.10
2018-07-13T15:35:18.665Z,89.30
2018-07-13T15:37:47.024Z,90.10
2018-07-13T15:47:02.203Z,88.60
2018-07-13T15:49:33.918Z,87.20
2018-07-13T15:52:02.470Z,90.40
2018-07-13T15:54:33.297Z,90.20
2018-07-13T15:57:02.076Z,90.90
2018-07-13T15:59:30.509Z,89.10
2018-07-13T16:01:59.271Z,88.80
2018-07-13T16:08:00.911Z,87.60
2018-07-13T16:10:32.328Z,89.20
2018-07-13T16:13:02.821Z,87.90
2018-07-13T16:15:55.452Z,88.20
2018-07-13T16:25:11.441Z,87.30
2018-07-13T16:27:41.080Z,88.20
2018-07-13T16:30:10.644Z,88.50
2018-07-13T16:32:51.714Z,86.20
2018-07-13T16:35:20.050Z,88.10
2018-07-13T16:37:48.479Z,86.70
2018-07-13T16:40:17.926Z,89.20
2018-07-13T16:42:47.198Z,87.60
2018-07-13T16:45:32.306Z,91.20
2018-07-13T16:48:02.194Z,88.60
2018-07-13T16:50:30.570Z,87.40
2018-07-13T16:52:58.937Z,87.80
2018-07-13T16:55:27.751Z,90.30
2018-07-13T16:57:57.619Z,90.70
2018-07-13T17:00:28.401Z,93.40
2018-07-13T17:05:29.703Z,91.50
2018-07-13T17:07:58.051Z,92.10
2018-07-13T17:10:27.042Z,89.40
2018-07-13T17:12:55.458Z,90.50
2018-07-13T17:15:24.423Z,91.80
2018-07-13T17:17:53.694Z,92.00
2018-07-13T17:20:22.174Z,92.90
2018-07-13T17:22:50.628Z,93.90
2018-07-13T17:25:21.233Z,94.00
2018-07-13T17:27:49.896Z,93.90
2018-07-13T17:30:18.529Z,94.70
2018-07-13T17:32:47.540Z,95.30
2018-07-13T17:38:36.946Z,94.50
2018-07-13T17:41:08.009Z,95.80
2018-07-13T17:43:36.892Z,96.40
2018-07-13T17:46:05.306Z,96.60
2018-07-13T17:48:33.783Z,96.50
2018-07-13T17:54:17.892Z,96.40
2018-07-13T17:56:46.682Z,96.20
2018-07-13T17:59:17.504Z,96.30
2018-07-13T18:01:48.100Z,96.60
2018-07-13T18:06:45.442Z,96.20
2018-07-13T18:09:15.199Z,96.90
2018-07-13T18:11:44.125Z,96.90
2018-07-13T18:14:12.658Z,97.90
2018-07-13T18:16:44.714Z,98.10
2018-07-13T18:19:13.544Z,97.80
2018-07-13T18:21:42.083Z,97.80
2018-07-13T18:24:10.483Z,99.70
2018-07-13T18:26:39.304Z,99.00
2018-07-13T18:29:07.725Z,99.10
2018-07-13T18:31:36.106Z,99.90
2018-07-13T18:34:08.479Z,99.30
2018-07-13T18:36:37.096Z,99.50
2018-07-13T18:39:05.558Z,99.60
2018-07-13T18:44:02.289Z,99.90
2018-07-13T18:46:31.352Z,99.90
2018-07-13T18:49:00.349Z,99.90
2018-07-13T18:51:28.826Z,99.90
2018-07-13T18:53:58.845Z,99.90
2018-07-13T18:56:27.523Z,99.90
2018-07-13T18:58:56.323Z,99.90
2018-07-13T19:01:25.558Z,99.90
2018-07-13T19:03:54.209Z,99.90
2018-07-13T19:06:23.099Z,99.90
2018-07-13T19:08:51.604Z,99.90
2018-07-13T19:11:20.421Z,99.90
2018-07-13T19:13:48.820Z,99.90
2018-07-13T19:16:17.359Z,99.90
2018-07-13T19:18:46.112Z,99.90
2018-07-13T19:21:15.027Z,99.90
2018-07-13T19:23:43.401Z,99.90
2018-07-13T19:26:12.221Z,99.90
2018-07-13T19:31:10.473Z,99.90
2018-07-13T19:33:39.303Z,99.90
2018-07-13T19:38:35.941Z,99.90
2018-07-13T19:41:04.666Z,99.90
2018-07-13T19:43:33.068Z,99.90
2018-07-13T19:46:01.403Z,99.90
2018-07-13T19:50:58.277Z,99.90
2018-07-13T19:53:26.607Z,99.90
2018-07-13T19:55:57.616Z,99.90
2018-07-13T19:58:29.397Z,99.90
2018-07-13T20:01:07.629Z,99.90
2018-07-13T20:03:35.972Z,99.90
2018-07-13T20:06:04.397Z,99.90
2018-07-13T20:08:33.364Z,99.90
2018-07-13T20:11:01.853Z,99.90
2018-07-13T20:13:30.297Z,99.90
2018-07-13T20:15:59.163Z,99.90
2018-07-13T20:20:57.660Z,99.90
2018-07-13T20:23:26.964Z,99.90
2018-07-13T20:25:55.677Z,99.90
2018-07-13T20:28:24.265Z,99.90
2018-07-13T20:30:53.000Z,99.90
2018-07-13T20:33:21.418Z,99.90
2018-07-13T20:35:49.827Z,99.90
2018-07-13T20:38:18.555Z,99.90
2018-07-13T20:40:47.266Z,99.90
2018-07-13T20:43:17.150Z,99.90
2018-07-13T20:45:45.922Z,99.90
2018-07-13T20:48:14.271Z,99.90
2018-07-13T20:50:42.641Z,99.90
2018-07-13T20:53:11.285Z,99.90
2018-07-13T20:55:39.806Z,99.90
2018-07-13T20:58:08.424Z,99.90
2018-07-13T21:00:37.190Z,99.90
2018-07-13T21:03:05.687Z,99.90
2018-07-13T21:05:34.054Z,99.90
2018-07-13T21:08:02.858Z,99.90
2018-07-13T21:10:31.233Z,99.90
2018-07-13T21:12:59.588Z,99.90
2018-07-13T21:15:29.547Z,99.90
2018-07-13T21:17:58.288Z,99.90
2018-07-13T21:20:27.768Z,99.90
2018-07-13T21:22:56.468Z,99.90
2018-07-13T21:25:25.021Z,99.90
2018-07-13T21:27:53.370Z,99.90
2018-07-13T21:30:22.149Z,99.90
2018-07-13T21:32:50.656Z,99.90
2018-07-13T21:35:19.241Z,99.90
2018-07-13T21:42:44.042Z,99.90
2018-07-13T21:45:13.958Z,99.90
2018-07-13T21:47:44.656Z,99.90
2018-07-13T21:50:13.122Z,99.90
2018-07-13T21:52:41.831Z,99.90
2018-07-13T21:55:10.207Z,99.90
2018-07-13T21:57:38.795Z,99.90
2018-07-13T22:00:07.775Z,99.90
2018-07-13T22:02:36.285Z,99.90
2018-07-13T22:05:04.799Z,99.90
2018-07-13T22:07:33.558Z,99.90
2018-07-13T22:10:02.009Z,99.90
2018-07-13T22:12:30.418Z,99.90
2018-07-13T22:14:59.281Z,99.90
2018-07-13T22:17:28.562Z,99.90
2018-07-13T22:19:56.992Z,99.90
2018-07-13T22:22:25.770Z,99.90
2018-07-13T22:24:54.235Z,99.90
2018-07-13T22:27:23.109Z,99.90
2018-07-13T22:29:51.903Z,99.90
2018-07-13T22:32:20.397Z,99.90
2018-07-13T22:34:49.138Z,99.90
2018-07-13T22:37:17.970Z,99.90
2018-07-13T22:39:46.330Z,99.90
2018-07-13T22:42:15.372Z,99.90
2018-07-13T22:44:44.267Z,99.90
2018-07-13T22:47:12.641Z,99.90
2018-07-13T22:49:41.005Z,99.90
2018-07-13T22:52:09.705Z,99.90
2018-07-13T22:54:38.219Z,99.90
2018-07-13T22:59:35.480Z,99.90
2018-07-13T23:02:04.023Z,99.90
2018-07-13T23:04:32.821Z,99.90
2018-07-13T23:07:01.649Z,99.90
2018-07-13T23:09:30.127Z,99.90
2018-07-13T23:11:58.780Z,99.90
2018-07-13T23:14:27.674Z,99.90
2018-07-13T23:16:56.359Z,99.90
2018-07-13T23:19:24.769Z,99.90
2018-07-13T23:21:53.741Z,99.90
2018-07-13T23:24:22.118Z,99.90
2018-07-13T23:26:50.569Z,99.90
2018-07-13T23:29:19.226Z,99.90
2018-07-13T23:31:47.628Z,99.90
2018-07-13T23:34:16.113Z,99.90
2018-07-13T23:36:44.496Z,99.90
2018-07-13T23:39:13.027Z,99.90
2018-07-13T23:41:41.408Z,99.90
2018-07-13T23:44:10.221Z,99.90
2018-07-13T23:46:38.656Z,99.90
2018-07-13T23:49:07.280Z,99.90
2018-07-13T23:51:36.102Z,99.90
2018-07-13T23:54:04.913Z,99.90
2018-07-13T23:56:33.237Z,99.90
2018-07-13T23:59:03.150Z,99.90
